Overview Statistics Trail Chart Weather Telemetry Raw packets
 

This is the latest recevied weather packets stored in our database for station/object KG5CK-1. If no packets are shown the sender has not sent any weather packets the latest 10 day(s).

<< 512 513 514 515 516 517 518 >>
Time Temp. Humidity Pressure Rain* Wind** Luminosity Snow
1787952422 38.89° C 35% 1011.1 hPa 0 mm 0.89 m/s, 95° - -
1787952363 38.89° C 35% 1011.1 hPa 0 mm 0.89 m/s, 95° - -
1787952302 40° C 35% 1010.8 hPa 0 mm 1.79 m/s, 145° - -
1787952242 40° C 35% 1010.8 hPa 0 mm 1.79 m/s, 145° - -
1787952182 40° C 35% 1010.8 hPa 0 mm 1.79 m/s, 145° - -
1787952122 40° C 35% 1010.8 hPa 0 mm 1.79 m/s, 145° - -
1787952062 40° C 35% 1010.8 hPa 0 mm 1.79 m/s, 145° - -
1787952003 38.33° C 36% 1011.1 hPa 0 mm 0.89 m/s, 64° - -
1787951943 38.33° C 36% 1011.1 hPa 0 mm 0.89 m/s, 64° - -
1787951883 38.33° C 36% 1011.1 hPa 0 mm 0.89 m/s, 64° - -
1787951823 38.33° C 36% 1011.1 hPa 0 mm 0.89 m/s, 64° - -
1787951763 38.33° C 36% 1011.1 hPa 0 mm 0.89 m/s, 64° - -
1787951703 38.89° C 36% 1011.2 hPa 0 mm 0.89 m/s, 50° - -
1787951642 38.89° C 36% 1011.2 hPa 0 mm 0.89 m/s, 50° - -
1787951583 38.89° C 36% 1011.2 hPa 0 mm 0.89 m/s, 50° - -
1787951523 38.89° C 36% 1011.2 hPa 0 mm 0.89 m/s, 50° - -
1787951463 38.89° C 36% 1011.2 hPa 0 mm 0.89 m/s, 50° - -
1787951402 39.44° C 35% 1011.4 hPa 0 mm 0.89 m/s, 51° - -
1787951343 39.44° C 35% 1011.4 hPa 0 mm 0.89 m/s, 51° - -
1787951283 39.44° C 35% 1011.4 hPa 0 mm 0.89 m/s, 51° - -
1787951223 39.44° C 35% 1011.4 hPa 0 mm 0.89 m/s, 51° - -
1787951162 39.44° C 35% 1011.4 hPa 0 mm 0.89 m/s, 51° - -
1787951103 39.44° C 35% 1011.2 hPa 0 mm 0.45 m/s, 59° - -
1787951043 39.44° C 35% 1011.2 hPa 0 mm 0.45 m/s, 59° - -
1787950983 39.44° C 35% 1011.2 hPa 0 mm 0.45 m/s, 59° - -

* Rain latest hour (hover to see other rain measurements)
** Current wind speed in m/s (hover to see current wind gust speed)